createdAt,value
2023-03-28T00:01:40.182Z,0.60
2023-03-28T00:03:42.451Z,0.85
2023-03-28T00:05:51.318Z,0.80
2023-03-28T00:07:53.722Z,0.80
2023-03-28T00:09:57.348Z,0.65
2023-03-28T00:11:59.012Z,0.80
2023-03-28T00:14:01.410Z,0.73
2023-03-28T00:16:06.939Z,0.68
2023-03-28T00:18:11.572Z,0.60
2023-03-28T00:20:14.464Z,0.73
2023-03-28T00:22:16.236Z,0.80
2023-03-28T00:24:21.281Z,0.70
2023-03-28T00:26:24.918Z,0.80
2023-03-28T00:28:26.717Z,0.80
2023-03-28T00:30:28.494Z,0.60
2023-03-28T00:32:30.189Z,0.68
2023-03-28T00:34:31.896Z,0.80
2023-03-28T00:36:34.017Z,0.70
2023-03-28T00:38:35.951Z,0.80
2023-03-28T00:40:38.674Z,0.80
2023-03-28T00:42:43.554Z,0.70
2023-03-28T00:44:49.494Z,0.70
2023-03-28T00:46:51.626Z,0.88
2023-03-28T00:49:15.726Z,0.60
2023-03-28T00:51:20.328Z,0.60
2023-03-28T00:53:26.274Z,0.80
2023-03-28T00:55:41.869Z,0.90
2023-03-28T00:57:46.166Z,1.00
2023-03-28T00:59:47.814Z,1.00
2023-03-28T01:01:50.013Z,0.60
2023-03-28T01:04:02.192Z,0.60
2023-03-28T01:06:04.979Z,0.60
2023-03-28T01:08:14.561Z,0.70
2023-03-28T01:10:16.365Z,0.70
2023-03-28T01:12:19.820Z,0.50
2023-03-28T01:14:23.847Z,0.50
2023-03-28T01:16:26.674Z,0.63
2023-03-28T01:18:30.220Z,0.60
2023-03-28T01:20:42.300Z,0.60
2023-03-28T01:22:59.025Z,0.70
2023-03-28T01:25:06.708Z,0.68
2023-03-28T01:27:20.581Z,0.77
2023-03-28T01:29:42.593Z,0.60
2023-03-28T01:32:28.681Z,0.60
2023-03-28T01:35:00.336Z,0.75
2023-03-28T01:37:36.720Z,0.60
2023-03-28T01:40:01.561Z,0.80
2023-03-28T01:42:21.971Z,0.70
2023-03-28T01:44:42.487Z,0.70
2023-03-28T01:46:54.586Z,0.60
2023-03-28T01:49:11.802Z,0.70
2023-03-28T01:51:29.045Z,0.77
2023-03-28T01:54:08.128Z,0.70
2023-03-28T01:56:31.221Z,0.70
2023-03-28T01:58:46.509Z,0.85
2023-03-28T02:01:17.289Z,0.60
2023-03-28T02:03:28.506Z,0.40
2023-03-28T02:07:35.044Z,0.70
2023-03-28T02:09:39.092Z,0.70
2023-03-28T02:11:41.592Z,0.50
2023-03-28T02:14:04.342Z,0.60
2023-03-28T02:16:08.155Z,0.65
2023-03-28T02:18:17.976Z,0.65
2023-03-28T02:20:24.744Z,0.57
2023-03-28T02:22:44.450Z,0.88
2023-03-28T02:24:50.455Z,0.52
2023-03-28T02:26:53.494Z,0.68
2023-03-28T02:28:57.903Z,0.75
2023-03-28T02:31:01.616Z,0.63
2023-03-28T02:33:06.060Z,0.70
2023-03-28T02:35:09.036Z,0.73
2023-03-28T02:37:54.872Z,0.80
2023-03-28T02:40:34.616Z,0.80
2023-03-28T02:42:52.910Z,0.50
2023-03-28T02:45:26.507Z,0.60
2023-03-28T02:47:47.153Z,0.60
2023-03-28T02:50:13.138Z,0.43
2023-03-28T02:52:36.939Z,0.60
2023-03-28T02:55:18.469Z,0.73
2023-03-28T02:59:44.238Z,0.68
2023-03-28T03:01:46.410Z,0.77
2023-03-28T03:03:49.949Z,0.63
2023-03-28T03:05:51.755Z,0.63
2023-03-28T03:07:53.426Z,0.57
2023-03-28T03:09:55.497Z,0.60
2023-03-28T03:11:57.162Z,0.60
2023-03-28T03:14:00.188Z,0.60
2023-03-28T03:16:02.608Z,0.50
2023-03-28T03:18:04.787Z,0.60
2023-03-28T03:20:07.388Z,0.60
2023-03-28T03:22:09.429Z,0.73
2023-03-28T03:24:22.251Z,0.80
2023-03-28T03:26:23.926Z,0.60
2023-03-28T03:28:25.614Z,0.63
2023-03-28T03:30:27.652Z,0.63
2023-03-28T03:32:29.517Z,0.77
2023-03-28T03:34:33.904Z,0.50
2023-03-28T03:36:35.529Z,0.75
2023-03-28T03:38:37.150Z,0.80
2023-03-28T03:40:38.818Z,0.70
2023-03-28T03:42:40.667Z,0.63
2023-03-28T03:44:42.914Z,0.63
2023-03-28T03:46:44.688Z,0.57
2023-03-28T03:48:49.440Z,0.65
2023-03-28T03:50:51.457Z,0.70
2023-03-28T03:52:53.195Z,0.63
2023-03-28T03:54:54.885Z,0.60
2023-03-28T03:56:56.565Z,0.60
2023-03-28T03:58:58.489Z,0.65
2023-03-28T04:01:00.338Z,0.50
2023-03-28T04:03:02.501Z,0.60
2023-03-28T04:05:04.527Z,0.60
2023-03-28T04:07:06.473Z,0.52
2023-03-28T04:09:08.624Z,0.73
2023-03-28T04:11:10.652Z,0.65
2023-03-28T04:13:12.305Z,0.60
2023-03-28T04:15:13.903Z,0.70
2023-03-28T04:17:16.232Z,0.90
2023-03-28T04:19:19.028Z,0.68
2023-03-28T04:21:25.782Z,0.60
2023-03-28T04:23:27.741Z,0.70
2023-03-28T04:25:29.786Z,0.70
2023-03-28T04:27:31.467Z,0.77
2023-03-28T04:29:33.267Z,0.52
2023-03-28T04:31:39.760Z,0.60
2023-03-28T04:33:41.711Z,0.50
2023-03-28T04:35:43.472Z,0.90
2023-03-28T04:37:45.176Z,0.60
2023-03-28T04:39:53.892Z,0.70
2023-03-28T04:41:56.225Z,0.80
2023-03-28T04:43:58.155Z,0.80
2023-03-28T04:46:00.071Z,1.05
2023-03-28T04:48:01.965Z,1.10
2023-03-28T04:50:04.025Z,1.00
2023-03-28T04:52:06.664Z,0.90
2023-03-28T04:54:08.334Z,1.00
2023-03-28T04:56:13.937Z,1.17
2023-03-28T04:58:16.860Z,0.88
2023-03-28T05:00:18.798Z,1.05
2023-03-28T05:02:20.577Z,1.00
2023-03-28T05:04:23.561Z,1.23
2023-03-28T05:06:26.015Z,1.80
2023-03-28T05:08:27.815Z,1.70
2023-03-28T05:10:29.572Z,1.35
2023-03-28T05:12:31.233Z,1.40
2023-03-28T05:14:33.498Z,1.20
2023-03-28T05:16:35.492Z,1.52
2023-03-28T05:18:37.191Z,1.30
2023-03-28T05:20:38.827Z,1.20
2023-03-28T05:22:41.616Z,1.30
2023-03-28T05:24:43.224Z,0.98
2023-03-28T05:26:44.957Z,1.02
2023-03-28T05:28:46.762Z,1.20
2023-03-28T05:30:48.421Z,1.17
2023-03-28T05:32:50.094Z,1.20
2023-03-28T05:34:51.748Z,0.93
2023-03-28T05:36:53.406Z,1.48
2023-03-28T05:38:55.050Z,1.40
2023-03-28T05:40:57.356Z,1.27
2023-03-28T05:42:59.220Z,1.08
2023-03-28T05:45:00.898Z,1.27
2023-03-28T05:47:02.540Z,1.92
2023-03-28T05:49:04.324Z,1.30
2023-03-28T05:51:06.287Z,1.23
2023-03-28T05:53:08.025Z,1.38
2023-03-28T05:55:09.883Z,1.20
2023-03-28T05:57:11.607Z,1.83
2023-03-28T05:59:13.244Z,1.52
2023-03-28T06:01:18.005Z,1.80
2023-03-28T06:03:19.941Z,1.40
2023-03-28T06:05:21.734Z,2.03
2023-03-28T06:07:35.213Z,1.75
2023-03-28T06:09:41.812Z,1.40
2023-03-28T06:11:44.003Z,1.50
2023-03-28T06:13:45.895Z,1.50
2023-03-28T06:15:47.615Z,1.70
2023-03-28T06:17:49.278Z,1.83
2023-03-28T06:19:51.666Z,1.30
2023-03-28T06:21:53.962Z,1.48
2023-03-28T06:23:55.848Z,1.50
2023-03-28T06:25:57.608Z,1.70
2023-03-28T06:27:59.334Z,1.45
2023-03-28T06:30:01.232Z,1.33
2023-03-28T06:32:04.050Z,1.48
2023-03-28T06:34:05.703Z,1.50
2023-03-28T06:36:11.506Z,1.23
2023-03-28T06:38:13.266Z,1.63
2023-03-28T06:40:15.194Z,1.60
2023-03-28T06:42:17.328Z,1.52
2023-03-28T06:44:19.016Z,1.40
2023-03-28T06:46:20.712Z,1.52
2023-03-28T06:48:22.455Z,1.45
2023-03-28T06:50:24.119Z,1.70
2023-03-28T06:52:25.824Z,1.20
2023-03-28T06:54:27.499Z,1.02
2023-03-28T06:56:29.600Z,1.38
2023-03-28T06:58:31.593Z,1.42
2023-03-28T07:00:33.368Z,1.55
2023-03-28T07:02:35.324Z,1.40
2023-03-28T07:04:37.396Z,1.40
2023-03-28T07:06:39.060Z,1.48
2023-03-28T07:08:40.698Z,1.20
2023-03-28T07:10:42.780Z,1.42
2023-03-28T07:12:44.450Z,1.63
2023-03-28T07:14:47.542Z,1.05
2023-03-28T07:16:49.223Z,0.95
2023-03-28T07:18:51.088Z,1.17
2023-03-28T07:21:04.074Z,1.73
2023-03-28T07:23:06.888Z,1.40
2023-03-28T07:25:08.822Z,1.33
2023-03-28T07:27:15.326Z,1.40
2023-03-28T07:29:18.049Z,1.65
2023-03-28T07:31:21.079Z,1.08
2023-03-28T07:33:29.076Z,1.35
2023-03-28T07:35:39.603Z,1.30
2023-03-28T07:37:41.241Z,1.25
2023-03-28T07:39:43.888Z,1.05
2023-03-28T07:41:45.710Z,1.38
2023-03-28T07:43:47.343Z,1.20
2023-03-28T07:45:49.031Z,1.38
2023-03-28T07:47:50.803Z,1.52
2023-03-28T07:49:52.434Z,1.30
2023-03-28T07:51:54.129Z,1.90
2023-03-28T07:53:56.151Z,2.25
2023-03-28T07:55:58.015Z,2.00
2023-03-28T07:58:00.143Z,1.60
2023-03-28T08:00:01.947Z,1.10
2023-03-28T08:02:03.727Z,1.38
2023-03-28T08:04:06.033Z,1.33
2023-03-28T08:06:20.598Z,1.50
2023-03-28T08:08:31.170Z,1.50
2023-03-28T08:10:33.206Z,1.30
2023-03-28T08:12:34.903Z,1.45
2023-03-28T08:14:36.591Z,1.40
2023-03-28T08:16:38.512Z,1.58
2023-03-28T08:18:40.194Z,1.23
2023-03-28T08:20:41.800Z,1.30
2023-03-28T08:22:43.461Z,1.40
2023-03-28T08:24:45.597Z,1.42
2023-03-28T08:26:48.763Z,1.27
2023-03-28T08:28:51.313Z,1.20
2023-03-28T08:30:53.071Z,1.50
2023-03-28T08:32:54.873Z,1.60
2023-03-28T08:34:57.861Z,1.13
2023-03-28T08:36:59.876Z,1.10
2023-03-28T08:39:04.262Z,1.13
2023-03-28T08:41:09.046Z,0.98
2023-03-28T08:43:29.316Z,1.17
2023-03-28T08:45:57.682Z,1.20
2023-03-28T08:48:11.286Z,1.10
2023-03-28T08:50:37.767Z,1.10
2023-03-28T08:52:40.953Z,1.02
2023-03-28T08:55:16.012Z,1.08
2023-03-28T08:57:23.577Z,1.20
2023-03-28T09:00:15.004Z,0.82
2023-03-28T09:02:22.076Z,1.13
2023-03-28T09:04:35.025Z,1.10
2023-03-28T09:06:41.042Z,1.10
2023-03-28T09:09:11.909Z,1.25
2023-03-28T09:11:48.968Z,1.00
2023-03-28T09:14:23.937Z,1.23
2023-03-28T09:16:31.783Z,1.00
2023-03-28T09:18:37.192Z,1.08
2023-03-28T09:20:51.008Z,1.40
2023-03-28T09:23:01.294Z,1.00
2023-03-28T09:25:30.584Z,1.35
2023-03-28T09:27:46.168Z,1.27
2023-03-28T09:29:48.402Z,0.95
2023-03-28T09:31:56.377Z,1.00
2023-03-28T09:34:00.167Z,1.25
2023-03-28T09:36:03.208Z,1.30
2023-03-28T09:38:12.938Z,1.50
2023-03-28T09:40:27.356Z,1.75
2023-03-28T09:43:04.050Z,1.70
2023-03-28T09:45:30.654Z,1.65
2023-03-28T09:47:32.905Z,1.70
2023-03-28T09:49:34.606Z,3.05
2023-03-28T09:51:37.553Z,1.70
2023-03-28T09:53:39.342Z,1.52
2023-03-28T09:55:42.897Z,1.38
2023-03-28T09:58:09.184Z,1.40
2023-03-28T10:00:21.403Z,2.40
2023-03-28T10:02:32.401Z,1.50
2023-03-28T10:06:40.305Z,1.40
2023-03-28T10:08:42.361Z,1.65
2023-03-28T10:10:44.000Z,1.50
2023-03-28T10:12:48.932Z,1.58
2023-03-28T10:14:50.772Z,1.70
2023-03-28T10:16:52.500Z,1.85
2023-03-28T10:18:54.658Z,1.80
2023-03-28T10:20:56.585Z,1.67
2023-03-28T10:22:58.337Z,1.52
2023-03-28T10:25:00.679Z,1.67
2023-03-28T10:27:34.296Z,1.77
2023-03-28T10:29:37.102Z,1.60
2023-03-28T10:31:40.034Z,1.60
2023-03-28T10:33:46.247Z,1.75
2023-03-28T10:35:56.164Z,1.90
2023-03-28T10:38:03.548Z,1.85
2023-03-28T10:40:29.701Z,2.33
2023-03-28T10:42:45.175Z,2.35
2023-03-28T10:44:59.810Z,2.42
2023-03-28T10:47:18.218Z,3.38
2023-03-28T10:49:21.084Z,3.25
2023-03-28T10:51:24.798Z,4.70
2023-03-28T10:53:52.756Z,4.63
2023-03-28T10:56:14.164Z,4.47
2023-03-28T10:58:41.348Z,5.07
2023-03-28T11:00:55.578Z,5.38
2023-03-28T11:03:32.443Z,5.72
2023-03-28T11:05:55.016Z,8.30
2023-03-28T11:08:19.478Z,6.60
2023-03-28T11:10:48.593Z,5.78
2023-03-28T11:13:04.302Z,6.00
2023-03-28T11:15:16.776Z,6.10
2023-03-28T11:17:46.039Z,5.97
2023-03-28T11:20:07.101Z,5.70
2023-03-28T11:22:16.435Z,5.70
2023-03-28T11:24:36.927Z,5.63
2023-03-28T11:27:12.386Z,5.80
2023-03-28T11:29:45.958Z,5.72
2023-03-28T11:32:02.944Z,6.10
2023-03-28T11:34:17.301Z,5.43
2023-03-28T11:36:33.827Z,4.50
2023-03-28T11:38:43.087Z,5.88
2023-03-28T11:41:04.486Z,5.28
2023-03-28T11:43:10.196Z,4.07
2023-03-28T11:45:12.102Z,4.03
2023-03-28T11:47:22.640Z,3.20
2023-03-28T11:49:35.338Z,3.53
2023-03-28T11:52:01.116Z,3.15
2023-03-28T11:54:17.540Z,3.80
2023-03-28T11:56:56.736Z,3.97
2023-03-28T11:59:06.243Z,4.22
2023-03-28T12:01:28.753Z,4.70
2023-03-28T12:03:42.894Z,5.28
2023-03-28T12:06:02.609Z,4.68
2023-03-28T12:10:17.321Z,4.38
2023-03-28T12:12:50.823Z,4.20
2023-03-28T12:15:14.226Z,4.28
2023-03-28T12:17:26.879Z,4.22
2023-03-28T12:19:37.830Z,4.20
2023-03-28T12:21:45.898Z,4.40
2023-03-28T12:24:35.438Z,4.28
2023-03-28T12:27:14.710Z,4.38
2023-03-28T12:29:25.546Z,3.90
2023-03-28T12:31:49.608Z,4.38
2023-03-28T12:34:16.194Z,4.30
2023-03-28T12:36:41.187Z,4.05
2023-03-28T12:38:55.602Z,3.88
2023-03-28T12:41:02.317Z,3.83
2023-03-28T12:43:06.250Z,4.22
2023-03-28T12:45:14.550Z,3.88
2023-03-28T12:47:22.199Z,3.60
2023-03-28T12:49:37.098Z,3.80
2023-03-28T12:51:46.740Z,3.55
2023-03-28T12:54:21.163Z,3.30
2023-03-28T12:56:22.849Z,3.47
2023-03-28T12:58:26.614Z,3.53
2023-03-28T13:00:35.450Z,3.30
2023-03-28T13:02:52.377Z,3.58
2023-03-28T13:05:16.266Z,3.40
2023-03-28T13:07:28.687Z,2.00
2023-03-28T13:09:39.173Z,1.92
2023-03-28T13:11:49.264Z,2.30
2023-03-28T13:13:59.054Z,1.80
2023-03-28T13:16:06.007Z,2.15
2023-03-28T13:18:22.422Z,2.58
2023-03-28T13:20:27.662Z,2.72
2023-03-28T13:22:58.352Z,2.72
2023-03-28T13:25:29.673Z,3.05
2023-03-28T13:27:33.279Z,3.20
2023-03-28T13:29:58.433Z,2.88
2023-03-28T13:32:04.131Z,2.60
2023-03-28T13:34:05.845Z,3.10
2023-03-28T13:36:10.634Z,2.90
2023-03-28T13:38:27.987Z,3.15
2023-03-28T13:40:50.580Z,3.40
2023-03-28T13:42:59.695Z,3.60
2023-03-28T13:45:16.638Z,3.50
2023-03-28T13:47:28.773Z,3.75
2023-03-28T13:49:30.402Z,3.42
2023-03-28T13:51:39.489Z,3.40
2023-03-28T13:53:47.474Z,3.80
2023-03-28T13:56:23.281Z,3.05
2023-03-28T13:58:25.148Z,3.83
2023-03-28T14:00:28.797Z,2.88
2023-03-28T14:03:04.254Z,3.15
2023-03-28T14:05:22.305Z,3.20
2023-03-28T14:07:28.397Z,3.60
2023-03-28T14:09:34.870Z,3.13
2023-03-28T14:11:38.088Z,2.85
2023-03-28T14:13:39.825Z,2.90
2023-03-28T14:15:43.533Z,3.50
2023-03-28T14:17:45.289Z,3.05
2023-03-28T14:19:57.071Z,3.00
2023-03-28T14:21:59.186Z,3.42
2023-03-28T14:24:04.703Z,3.15
2023-03-28T14:26:22.075Z,3.20
2023-03-28T14:28:29.179Z,2.55
2023-03-28T14:30:37.719Z,2.85
2023-03-28T14:32:54.521Z,2.47
2023-03-28T14:35:22.520Z,2.17
2023-03-28T14:37:24.934Z,2.30
2023-03-28T14:39:29.288Z,2.28
2023-03-28T14:41:34.066Z,2.20
2023-03-28T14:43:36.698Z,2.63
2023-03-28T14:45:42.470Z,2.10
2023-03-28T14:47:44.386Z,2.80
2023-03-28T14:49:46.893Z,2.22
2023-03-28T14:51:54.873Z,2.20
2023-03-28T14:53:56.809Z,2.35
2023-03-28T14:56:05.334Z,2.17
2023-03-28T14:58:12.642Z,2.25
2023-03-28T15:00:19.201Z,2.20
2023-03-28T15:02:28.013Z,2.15
2023-03-28T15:04:32.109Z,1.98
2023-03-28T15:06:35.332Z,2.20
2023-03-28T15:08:38.662Z,1.92
2023-03-28T15:10:49.274Z,1.80
2023-03-28T15:13:01.353Z,2.58
2023-03-28T15:15:04.176Z,2.22
2023-03-28T15:17:06.174Z,1.98
2023-03-28T15:19:34.336Z,1.80
2023-03-28T15:21:38.193Z,2.00
2023-03-28T15:23:55.734Z,2.10
2023-03-28T15:26:01.613Z,1.77
2023-03-28T15:28:06.457Z,1.67
2023-03-28T15:30:20.752Z,2.45
2023-03-28T15:32:22.560Z,2.10
2023-03-28T15:34:28.757Z,2.22
2023-03-28T15:36:34.810Z,2.05
2023-03-28T15:38:40.648Z,2.38
2023-03-28T15:40:50.718Z,2.05
2023-03-28T15:42:52.445Z,1.90
2023-03-28T15:44:56.824Z,1.80
2023-03-28T15:47:04.742Z,1.70
2023-03-28T15:49:07.397Z,2.08
2023-03-28T15:51:16.462Z,2.15
2023-03-28T15:53:19.137Z,1.70
2023-03-28T15:55:22.834Z,1.83
2023-03-28T15:57:28.220Z,1.98
2023-03-28T15:59:35.944Z,1.60
2023-03-28T16:01:37.791Z,1.98
2023-03-28T16:03:39.656Z,1.90
2023-03-28T16:05:47.100Z,1.65
2023-03-28T16:07:50.731Z,1.67
2023-03-28T16:09:52.644Z,1.95
2023-03-28T16:12:03.012Z,1.95
2023-03-28T16:14:04.729Z,2.10
2023-03-28T16:16:07.300Z,2.35
2023-03-28T16:18:09.259Z,2.25
2023-03-28T16:20:16.427Z,2.50
2023-03-28T16:22:18.148Z,2.50
2023-03-28T16:24:20.241Z,2.25
2023-03-28T16:26:22.018Z,2.33
2023-03-28T16:28:23.644Z,2.13
2023-03-28T16:30:33.639Z,2.30
2023-03-28T16:32:35.340Z,2.40
2023-03-28T16:34:37.011Z,2.20
2023-03-28T16:36:39.050Z,2.30
2023-03-28T16:38:40.799Z,2.40
2023-03-28T16:40:42.922Z,2.15
2023-03-28T16:42:44.643Z,2.13
2023-03-28T16:44:46.241Z,2.75
2023-03-28T16:46:47.861Z,2.55
2023-03-28T16:48:49.485Z,2.42
2023-03-28T16:50:59.209Z,2.50
2023-03-28T16:53:02.246Z,2.40
2023-03-28T16:55:04.493Z,2.22
2023-03-28T16:57:06.514Z,2.58
2023-03-28T16:59:08.310Z,2.45
2023-03-28T17:01:18.784Z,2.13
2023-03-28T17:03:22.544Z,2.35
2023-03-28T17:05:24.559Z,2.63
2023-03-28T17:07:26.807Z,2.28
2023-03-28T17:09:28.545Z,2.30
2023-03-28T17:11:31.301Z,3.00
2023-03-28T17:13:34.253Z,1.90
2023-03-28T17:15:36.295Z,2.13
2023-03-28T17:17:38.388Z,1.83
2023-03-28T17:19:40.324Z,2.28
2023-03-28T17:21:42.008Z,2.28
2023-03-28T17:23:45.301Z,1.90
2023-03-28T17:25:54.849Z,1.95
2023-03-28T17:27:56.758Z,2.47
2023-03-28T17:29:58.428Z,2.08
2023-03-28T17:32:00.182Z,2.40
2023-03-28T17:34:01.931Z,2.30
2023-03-28T17:36:33.110Z,2.28
2023-03-28T17:38:34.767Z,3.90
2023-03-28T17:40:37.224Z,3.95
2023-03-28T17:42:38.986Z,4.13
2023-03-28T17:44:40.590Z,4.00
2023-03-28T17:46:42.715Z,3.60
2023-03-28T17:48:44.436Z,4.22
2023-03-28T17:50:53.676Z,4.10
2023-03-28T17:52:55.437Z,3.53
2023-03-28T17:54:58.015Z,2.92
2023-03-28T17:56:59.664Z,3.50
2023-03-28T17:59:01.395Z,3.50
2023-03-28T18:01:04.144Z,3.80
2023-03-28T18:03:06.478Z,3.47
2023-03-28T18:05:08.397Z,3.78
2023-03-28T18:07:16.093Z,3.55
2023-03-28T18:09:18.446Z,3.20
2023-03-28T18:11:20.320Z,3.60
2023-03-28T18:13:22.004Z,3.53
2023-03-28T18:15:24.082Z,3.13
2023-03-28T18:17:25.788Z,3.20
2023-03-28T18:19:27.633Z,3.60
2023-03-28T18:21:29.325Z,4.05
2023-03-28T18:23:31.826Z,3.20
2023-03-28T18:25:37.081Z,3.25
2023-03-28T18:27:38.702Z,3.05
2023-03-28T18:29:40.424Z,3.42
2023-03-28T18:31:42.495Z,3.45
2023-03-28T18:33:45.273Z,3.83
2023-03-28T18:35:47.055Z,3.30
2023-03-28T18:37:48.722Z,3.50
2023-03-28T18:39:50.417Z,3.10
2023-03-28T18:41:52.192Z,3.33
2023-03-28T18:43:53.887Z,3.60
2023-03-28T18:45:56.013Z,3.80
2023-03-28T18:47:57.742Z,4.10
2023-03-28T18:49:59.408Z,3.33
2023-03-28T18:52:06.895Z,3.50
2023-03-28T18:54:09.045Z,3.50
2023-03-28T18:56:12.223Z,3.28
2023-03-28T18:58:14.000Z,3.25
2023-03-28T19:00:19.026Z,3.13
2023-03-28T19:02:21.775Z,3.35
2023-03-28T19:04:24.593Z,3.50
2023-03-28T19:06:26.334Z,4.20
2023-03-28T19:08:29.685Z,3.00
2023-03-28T19:10:31.434Z,3.35
2023-03-28T19:12:36.448Z,3.63
2023-03-28T19:14:38.748Z,3.50
2023-03-28T19:16:40.427Z,3.15
2023-03-28T19:18:43.853Z,2.67
2023-03-28T19:20:50.229Z,3.17
2023-03-28T19:22:52.211Z,3.20
2023-03-28T19:24:53.890Z,3.92
2023-03-28T19:26:57.035Z,3.72
2023-03-28T19:29:00.717Z,3.97
2023-03-28T19:31:05.259Z,3.55
2023-03-28T19:33:07.391Z,4.00
2023-03-28T19:35:09.492Z,4.05
2023-03-28T19:37:11.142Z,3.78
2023-03-28T19:39:13.379Z,3.50
2023-03-28T19:41:18.845Z,3.70
2023-03-28T19:43:23.674Z,3.83
2023-03-28T19:45:26.283Z,4.28
2023-03-28T19:47:28.019Z,4.38
2023-03-28T19:49:29.694Z,4.53
2023-03-28T19:51:31.960Z,4.72
2023-03-28T19:53:33.712Z,4.15
2023-03-28T19:55:35.652Z,4.53
2023-03-28T19:57:37.533Z,4.05
2023-03-28T19:59:39.181Z,4.00
2023-03-28T20:01:40.895Z,4.13
2023-03-28T20:03:42.672Z,4.68
2023-03-28T20:05:45.943Z,4.05
2023-03-28T20:07:47.635Z,3.33
2023-03-28T20:09:49.321Z,3.45
2023-03-28T20:11:51.214Z,3.90
2023-03-28T20:13:52.817Z,4.00
2023-03-28T20:15:54.686Z,4.03
2023-03-28T20:17:56.432Z,3.88
2023-03-28T20:19:58.127Z,3.55
2023-03-28T20:21:59.883Z,4.15
2023-03-28T20:24:01.540Z,3.63
2023-03-28T20:26:21.573Z,3.25
2023-03-28T20:28:24.920Z,3.45
2023-03-28T20:30:26.677Z,3.10
2023-03-28T20:32:28.416Z,3.40
2023-03-28T20:34:30.430Z,2.72
2023-03-28T20:36:35.076Z,3.20
2023-03-28T20:38:36.811Z,3.55
2023-03-28T20:40:41.341Z,3.00
2023-03-28T20:42:42.981Z,3.40
2023-03-28T20:44:44.749Z,3.10
2023-03-28T20:46:48.835Z,3.40
2023-03-28T20:48:56.828Z,3.20
2023-03-28T20:51:02.649Z,2.90
2023-03-28T20:53:05.894Z,2.63
2023-03-28T20:55:08.318Z,3.05
2023-03-28T20:57:10.019Z,2.53
2023-03-28T20:59:12.425Z,3.10
2023-03-28T21:01:16.457Z,3.17
2023-03-28T21:03:18.364Z,3.10
2023-03-28T21:05:24.916Z,3.33
2023-03-28T21:07:26.671Z,2.88
2023-03-28T21:09:28.500Z,2.80
2023-03-28T21:11:32.377Z,2.70
2023-03-28T21:13:34.068Z,2.55
2023-03-28T21:15:36.208Z,2.67
2023-03-28T21:17:38.826Z,2.88
2023-03-28T21:19:40.579Z,3.28
2023-03-28T21:21:42.202Z,2.97
2023-03-28T21:23:44.782Z,2.40
2023-03-28T21:25:48.792Z,2.70
2023-03-28T21:27:50.545Z,2.47
2023-03-28T21:29:52.573Z,2.85
2023-03-28T21:31:54.273Z,2.65
2023-03-28T21:33:57.434Z,3.05
2023-03-28T21:35:59.414Z,3.00
2023-03-28T21:38:01.228Z,2.67
2023-03-28T21:40:06.528Z,2.80
2023-03-28T21:42:08.156Z,2.20
2023-03-28T21:44:09.782Z,2.42
2023-03-28T21:46:11.701Z,2.35
2023-03-28T21:48:13.852Z,2.65
2023-03-28T21:50:16.532Z,2.53
2023-03-28T21:52:18.324Z,2.28
2023-03-28T21:54:20.062Z,2.72
2023-03-28T21:56:22.956Z,2.47
2023-03-28T21:58:25.904Z,2.55
2023-03-28T22:00:28.449Z,2.60
2023-03-28T22:02:30.142Z,2.70
2023-03-28T22:04:32.079Z,2.67
2023-03-28T22:06:33.710Z,2.33
2023-03-28T22:08:35.518Z,2.30
2023-03-28T22:10:37.680Z,2.50
2023-03-28T22:12:39.358Z,2.45
2023-03-28T22:14:41.240Z,2.58
2023-03-28T22:16:42.858Z,2.53
2023-03-28T22:18:49.481Z,2.53
2023-03-28T22:20:54.813Z,2.55
2023-03-28T22:23:00.541Z,2.40
2023-03-28T22:25:03.940Z,2.25
2023-03-28T22:27:05.888Z,2.38
2023-03-28T22:29:08.020Z,2.30
2023-03-28T22:31:10.028Z,2.30
2023-03-28T22:33:13.477Z,2.58
2023-03-28T22:35:15.230Z,2.38
2023-03-28T22:37:16.848Z,2.20
2023-03-28T22:39:18.778Z,2.20
2023-03-28T22:41:21.168Z,2.50
2023-03-28T22:43:24.947Z,2.05
2023-03-28T22:45:26.729Z,2.40
2023-03-28T22:47:30.200Z,1.85
2023-03-28T22:49:34.056Z,2.20
2023-03-28T22:51:46.138Z,2.03
2023-03-28T22:53:47.904Z,2.72
2023-03-28T22:55:49.653Z,2.70
2023-03-28T22:57:52.508Z,2.35
2023-03-28T22:59:56.172Z,2.35
2023-03-28T23:01:58.602Z,2.00
2023-03-28T23:04:00.474Z,2.03
2023-03-28T23:06:06.043Z,2.10
2023-03-28T23:08:07.910Z,2.45
2023-03-28T23:10:14.403Z,2.25
2023-03-28T23:12:16.132Z,2.22
2023-03-28T23:14:17.777Z,2.08
2023-03-28T23:16:19.529Z,2.38
2023-03-28T23:18:21.176Z,1.75
2023-03-28T23:20:22.837Z,2.03
2023-03-28T23:22:24.490Z,2.20
2023-03-28T23:24:30.081Z,1.90
2023-03-28T23:26:31.903Z,2.08
2023-03-28T23:28:33.858Z,2.00
2023-03-28T23:30:35.450Z,1.80
2023-03-28T23:32:37.506Z,1.95
2023-03-28T23:34:40.235Z,2.10
2023-03-28T23:36:42.391Z,1.88
2023-03-28T23:38:44.050Z,1.88
2023-03-28T23:40:46.305Z,1.88
2023-03-28T23:42:47.949Z,1.83
2023-03-28T23:44:49.822Z,2.03
2023-03-28T23:46:51.490Z,1.60
2023-03-28T23:48:53.121Z,1.80
2023-03-28T23:50:54.696Z,1.60
2023-03-28T23:52:56.371Z,2.10
2023-03-28T23:54:58.099Z,1.90
2023-03-28T23:56:59.763Z,1.88
2023-03-28T23:59:01.495Z,1.80
